sensor_id;sensor_type;location;lat;lon;timestamp;P1;durP1;ratioP1;P2;durP2;ratioP2
2772;SDS011;1394;47.044;15.744;2022-12-10T00:00:16;29.80;;;7.83;;
2772;SDS011;1394;47.044;15.744;2022-12-10T00:02:44;31.50;;;8.30;;
2772;SDS011;1394;47.044;15.744;2022-12-10T00:05:12;34.10;;;10.43;;
2772;SDS011;1394;47.044;15.744;2022-12-10T00:07:39;30.83;;;7.50;;
2772;SDS011;1394;47.044;15.744;2022-12-10T00:10:09;28.40;;;6.30;;
2772;SDS011;1394;47.044;15.744;2022-12-10T00:12:39;29.10;;;6.40;;
2772;SDS011;1394;47.044;15.744;2022-12-10T00:15:07;28.80;;;6.30;;
2772;SDS011;1394;47.044;15.744;2022-12-10T00:17:34;28.10;;;6.17;;
2772;SDS011;1394;47.044;15.744;2022-12-10T00:20:04;29.30;;;7.10;;
2772;SDS011;1394;47.044;15.744;2022-12-10T00:22:32;27.97;;;5.43;;
2772;SDS011;1394;47.044;15.744;2022-12-10T00:24:59;27.30;;;5.50;;
2772;SDS011;1394;47.044;15.744;2022-12-10T00:27:26;27.00;;;5.30;;
2772;SDS011;1394;47.044;15.744;2022-12-10T00:29:53;28.73;;;6.50;;
2772;SDS011;1394;47.044;15.744;2022-12-10T00:32:21;27.20;;;5.53;;
2772;SDS011;1394;47.044;15.744;2022-12-10T00:34:48;27.80;;;6.00;;
2772;SDS011;1394;47.044;15.744;2022-12-10T00:37:17;27.17;;;5.23;;
2772;SDS011;1394;47.044;15.744;2022-12-10T00:39:44;28.43;;;5.87;;
2772;SDS011;1394;47.044;15.744;2022-12-10T00:42:12;26.63;;;5.17;;
2772;SDS011;1394;47.044;15.744;2022-12-10T00:44:41;27.30;;;5.67;;
2772;SDS011;1394;47.044;15.744;2022-12-10T00:47:09;28.17;;;5.97;;
2772;SDS011;1394;47.044;15.744;2022-12-10T00:49:36;27.00;;;5.37;;
2772;SDS011;1394;47.044;15.744;2022-12-10T00:52:04;26.80;;;4.87;;
2772;SDS011;1394;47.044;15.744;2022-12-10T00:54:32;26.70;;;4.93;;
2772;SDS011;1394;47.044;15.744;2022-12-10T00:57:01;26.20;;;4.60;;
2772;SDS011;1394;47.044;15.744;2022-12-10T00:59:28;26.47;;;4.93;;
2772;SDS011;1394;47.044;15.744;2022-12-10T01:01:55;27.20;;;5.10;;
2772;SDS011;1394;47.044;15.744;2022-12-10T01:04:22;26.83;;;5.07;;
2772;SDS011;1394;47.044;15.744;2022-12-10T01:06:50;27.60;;;5.93;;
2772;SDS011;1394;47.044;15.744;2022-12-10T01:09:21;26.33;;;4.57;;
2772;SDS011;1394;47.044;15.744;2022-12-10T01:11:50;26.73;;;5.10;;
2772;SDS011;1394;47.044;15.744;2022-12-10T01:14:21;28.47;;;6.80;;
2772;SDS011;1394;47.044;15.744;2022-12-10T01:16:49;26.83;;;5.10;;
2772;SDS011;1394;47.044;15.744;2022-12-10T01:19:17;27.43;;;4.90;;
2772;SDS011;1394;47.044;15.744;2022-12-10T01:21:44;27.40;;;5.10;;
2772;SDS011;1394;47.044;15.744;2022-12-10T01:24:11;27.17;;;5.23;;
2772;SDS011;1394;47.044;15.744;2022-12-10T01:26:39;26.70;;;4.67;;
2772;SDS011;1394;47.044;15.744;2022-12-10T01:29:09;26.80;;;4.80;;
2772;SDS011;1394;47.044;15.744;2022-12-10T01:31:37;27.00;;;5.00;;
2772;SDS011;1394;47.044;15.744;2022-12-10T01:34:05;27.30;;;5.23;;
2772;SDS011;1394;47.044;15.744;2022-12-10T01:36:33;26.93;;;4.93;;
2772;SDS011;1394;47.044;15.744;2022-12-10T01:39:01;27.70;;;5.90;;
2772;SDS011;1394;47.044;15.744;2022-12-10T01:41:30;27.10;;;5.17;;
2772;SDS011;1394;47.044;15.744;2022-12-10T01:43:58;28.47;;;6.60;;
2772;SDS011;1394;47.044;15.744;2022-12-10T01:46:27;28.67;;;6.63;;
2772;SDS011;1394;47.044;15.744;2022-12-10T01:48:56;27.57;;;5.43;;
2772;SDS011;1394;47.044;15.744;2022-12-10T01:51:24;27.20;;;5.60;;
2772;SDS011;1394;47.044;15.744;2022-12-10T01:53:52;26.70;;;4.90;;
2772;SDS011;1394;47.044;15.744;2022-12-10T01:56:20;26.80;;;5.13;;
2772;SDS011;1394;47.044;15.744;2022-12-10T01:58:48;26.80;;;5.30;;
2772;SDS011;1394;47.044;15.744;2022-12-10T02:01:19;26.73;;;4.80;;
2772;SDS011;1394;47.044;15.744;2022-12-10T02:03:56;27.70;;;5.20;;
2772;SDS011;1394;47.044;15.744;2022-12-10T02:06:29;27.67;;;5.70;;
2772;SDS011;1394;47.044;15.744;2022-12-10T02:09:02;27.77;;;5.97;;
2772;SDS011;1394;47.044;15.744;2022-12-10T02:11:33;28.50;;;6.33;;
2772;SDS011;1394;47.044;15.744;2022-12-10T02:14:05;27.13;;;4.87;;
2772;SDS011;1394;47.044;15.744;2022-12-10T02:16:36;26.77;;;4.97;;
2772;SDS011;1394;47.044;15.744;2022-12-10T02:19:09;27.80;;;5.47;;
2772;SDS011;1394;47.044;15.744;2022-12-10T02:21:40;27.93;;;6.57;;
2772;SDS011;1394;47.044;15.744;2022-12-10T02:24:10;27.30;;;5.43;;
2772;SDS011;1394;47.044;15.744;2022-12-10T02:26:40;27.37;;;5.40;;
2772;SDS011;1394;47.044;15.744;2022-12-10T02:29:13;27.50;;;4.90;;
2772;SDS011;1394;47.044;15.744;2022-12-10T02:31:43;27.03;;;4.97;;
2772;SDS011;1394;47.044;15.744;2022-12-10T02:34:11;29.30;;;6.43;;
2772;SDS011;1394;47.044;15.744;2022-12-10T02:36:41;27.27;;;5.30;;
2772;SDS011;1394;47.044;15.744;2022-12-10T02:39:09;26.80;;;4.80;;
2772;SDS011;1394;47.044;15.744;2022-12-10T02:41:37;27.93;;;5.40;;
2772;SDS011;1394;47.044;15.744;2022-12-10T02:44:07;27.00;;;4.80;;
2772;SDS011;1394;47.044;15.744;2022-12-10T02:46:37;29.37;;;5.63;;
2772;SDS011;1394;47.044;15.744;2022-12-10T02:49:06;27.87;;;5.53;;
2772;SDS011;1394;47.044;15.744;2022-12-10T02:51:33;26.43;;;4.77;;
2772;SDS011;1394;47.044;15.744;2022-12-10T02:54:03;26.60;;;4.90;;
2772;SDS011;1394;47.044;15.744;2022-12-10T02:56:33;26.63;;;4.70;;
2772;SDS011;1394;47.044;15.744;2022-12-10T02:59:04;27.80;;;5.60;;
2772;SDS011;1394;47.044;15.744;2022-12-10T03:01:37;26.53;;;4.37;;
2772;SDS011;1394;47.044;15.744;2022-12-10T03:04:09;26.53;;;4.33;;
2772;SDS011;1394;47.044;15.744;2022-12-10T03:06:39;26.13;;;4.50;;
2772;SDS011;1394;47.044;15.744;2022-12-10T03:09:09;26.37;;;4.10;;
2772;SDS011;1394;47.044;15.744;2022-12-10T03:11:38;25.87;;;3.90;;
2772;SDS011;1394;47.044;15.744;2022-12-10T03:14:10;26.93;;;5.13;;
2772;SDS011;1394;47.044;15.744;2022-12-10T03:16:41;27.20;;;4.97;;
2772;SDS011;1394;47.044;15.744;2022-12-10T03:19:10;27.20;;;4.23;;
2772;SDS011;1394;47.044;15.744;2022-12-10T03:21:38;28.07;;;6.07;;
2772;SDS011;1394;47.044;15.744;2022-12-10T03:24:07;26.63;;;4.50;;
2772;SDS011;1394;47.044;15.744;2022-12-10T03:26:34;25.97;;;3.70;;
2772;SDS011;1394;47.044;15.744;2022-12-10T03:29:04;27.40;;;4.27;;
2772;SDS011;1394;47.044;15.744;2022-12-10T03:31:36;26.60;;;4.87;;
2772;SDS011;1394;47.044;15.744;2022-12-10T03:34:07;26.27;;;4.37;;
2772;SDS011;1394;47.044;15.744;2022-12-10T03:36:35;26.23;;;4.10;;
2772;SDS011;1394;47.044;15.744;2022-12-10T03:39:03;26.00;;;3.70;;
2772;SDS011;1394;47.044;15.744;2022-12-10T03:41:30;25.90;;;4.07;;
2772;SDS011;1394;47.044;15.744;2022-12-10T03:43:58;26.50;;;4.20;;
2772;SDS011;1394;47.044;15.744;2022-12-10T03:46:26;26.37;;;4.30;;
2772;SDS011;1394;47.044;15.744;2022-12-10T03:48:54;26.50;;;5.03;;
2772;SDS011;1394;47.044;15.744;2022-12-10T03:51:23;27.77;;;6.10;;
2772;SDS011;1394;47.044;15.744;2022-12-10T03:53:50;27.10;;;4.70;;
2772;SDS011;1394;47.044;15.744;2022-12-10T03:56:18;26.53;;;4.43;;
2772;SDS011;1394;47.044;15.744;2022-12-10T03:58:45;25.97;;;4.03;;
2772;SDS011;1394;47.044;15.744;2022-12-10T04:01:13;25.50;;;3.87;;
2772;SDS011;1394;47.044;15.744;2022-12-10T04:03:41;27.90;;;5.63;;
2772;SDS011;1394;47.044;15.744;2022-12-10T04:06:09;26.70;;;4.53;;
2772;SDS011;1394;47.044;15.744;2022-12-10T04:08:38;27.00;;;4.60;;
2772;SDS011;1394;47.044;15.744;2022-12-10T04:11:06;26.57;;;4.40;;
2772;SDS011;1394;47.044;15.744;2022-12-10T04:13:36;26.57;;;4.40;;
2772;SDS011;1394;47.044;15.744;2022-12-10T04:16:21;26.37;;;4.03;;
2772;SDS011;1394;47.044;15.744;2022-12-10T04:18:56;26.93;;;4.73;;
2772;SDS011;1394;47.044;15.744;2022-12-10T04:21:24;26.47;;;4.23;;
2772;SDS011;1394;47.044;15.744;2022-12-10T04:24:11;26.20;;;4.07;;
2772;SDS011;1394;47.044;15.744;2022-12-10T04:27:06;27.37;;;4.20;;
2772;SDS011;1394;47.044;15.744;2022-12-10T04:29:33;27.77;;;5.40;;
2772;SDS011;1394;47.044;15.744;2022-12-10T04:32:01;27.10;;;5.33;;
2772;SDS011;1394;47.044;15.744;2022-12-10T04:34:28;26.30;;;4.53;;
2772;SDS011;1394;47.044;15.744;2022-12-10T04:36:56;26.70;;;4.67;;
2772;SDS011;1394;47.044;15.744;2022-12-10T04:39:25;27.60;;;5.40;;
2772;SDS011;1394;47.044;15.744;2022-12-10T04:41:52;27.43;;;5.60;;
2772;SDS011;1394;47.044;15.744;2022-12-10T04:44:19;28.23;;;5.13;;
2772;SDS011;1394;47.044;15.744;2022-12-10T04:46:47;27.50;;;4.80;;
2772;SDS011;1394;47.044;15.744;2022-12-10T04:49:14;26.53;;;4.37;;
2772;SDS011;1394;47.044;15.744;2022-12-10T04:51:42;27.80;;;5.37;;
2772;SDS011;1394;47.044;15.744;2022-12-10T04:54:10;29.97;;;6.97;;
2772;SDS011;1394;47.044;15.744;2022-12-10T04:56:38;27.20;;;5.57;;
2772;SDS011;1394;47.044;15.744;2022-12-10T04:59:06;27.13;;;5.00;;
2772;SDS011;1394;47.044;15.744;2022-12-10T05:01:33;27.10;;;4.87;;
2772;SDS011;1394;47.044;15.744;2022-12-10T05:04:01;28.60;;;5.80;;
2772;SDS011;1394;47.044;15.744;2022-12-10T05:06:29;27.57;;;5.40;;
2772;SDS011;1394;47.044;15.744;2022-12-10T05:08:56;27.50;;;4.97;;
2772;SDS011;1394;47.044;15.744;2022-12-10T05:11:25;27.20;;;4.83;;
2772;SDS011;1394;47.044;15.744;2022-12-10T05:13:55;29.13;;;6.03;;
2772;SDS011;1394;47.044;15.744;2022-12-10T05:16:24;28.90;;;5.70;;
2772;SDS011;1394;47.044;15.744;2022-12-10T05:18:52;28.83;;;6.53;;
2772;SDS011;1394;47.044;15.744;2022-12-10T05:21:36;27.63;;;5.63;;
2772;SDS011;1394;47.044;15.744;2022-12-10T05:24:21;33.33;;;7.40;;
2772;SDS011;1394;47.044;15.744;2022-12-10T05:26:48;28.33;;;6.07;;
2772;SDS011;1394;47.044;15.744;2022-12-10T05:29:18;27.77;;;5.43;;
2772;SDS011;1394;47.044;15.744;2022-12-10T05:31:45;27.60;;;4.90;;
2772;SDS011;1394;47.044;15.744;2022-12-10T05:34:12;26.60;;;4.20;;
2772;SDS011;1394;47.044;15.744;2022-12-10T05:36:40;27.07;;;4.60;;
2772;SDS011;1394;47.044;15.744;2022-12-10T05:39:07;26.87;;;4.20;;
2772;SDS011;1394;47.044;15.744;2022-12-10T05:41:37;26.73;;;4.57;;
2772;SDS011;1394;47.044;15.744;2022-12-10T05:44:04;26.60;;;4.57;;
2772;SDS011;1394;47.044;15.744;2022-12-10T05:46:35;27.37;;;4.10;;
2772;SDS011;1394;47.044;15.744;2022-12-10T05:49:02;27.07;;;4.50;;
2772;SDS011;1394;47.044;15.744;2022-12-10T05:51:31;28.30;;;5.40;;
2772;SDS011;1394;47.044;15.744;2022-12-10T05:53:59;27.67;;;4.70;;
2772;SDS011;1394;47.044;15.744;2022-12-10T05:56:28;29.40;;;5.93;;
2772;SDS011;1394;47.044;15.744;2022-12-10T05:58:57;26.47;;;4.40;;
2772;SDS011;1394;47.044;15.744;2022-12-10T06:01:25;27.00;;;4.47;;
2772;SDS011;1394;47.044;15.744;2022-12-10T06:03:54;26.37;;;4.17;;
2772;SDS011;1394;47.044;15.744;2022-12-10T06:06:26;26.50;;;4.10;;
2772;SDS011;1394;47.044;15.744;2022-12-10T06:08:53;29.20;;;5.90;;
2772;SDS011;1394;47.044;15.744;2022-12-10T06:11:21;25.87;;;3.90;;
2772;SDS011;1394;47.044;15.744;2022-12-10T06:13:48;26.67;;;4.10;;
2772;SDS011;1394;47.044;15.744;2022-12-10T06:16:15;26.20;;;3.67;;
2772;SDS011;1394;47.044;15.744;2022-12-10T06:18:43;25.60;;;3.50;;
2772;SDS011;1394;47.044;15.744;2022-12-10T06:21:12;26.23;;;3.80;;
2772;SDS011;1394;47.044;15.744;2022-12-10T06:23:40;26.40;;;3.87;;
2772;SDS011;1394;47.044;15.744;2022-12-10T06:26:11;25.93;;;3.57;;
2772;SDS011;1394;47.044;15.744;2022-12-10T06:28:38;26.23;;;3.60;;
2772;SDS011;1394;47.044;15.744;2022-12-10T06:31:06;26.57;;;3.83;;
2772;SDS011;1394;47.044;15.744;2022-12-10T06:33:33;27.20;;;3.70;;
2772;SDS011;1394;47.044;15.744;2022-12-10T06:36:04;26.23;;;3.90;;
2772;SDS011;1394;47.044;15.744;2022-12-10T06:38:33;26.70;;;4.00;;
2772;SDS011;1394;47.044;15.744;2022-12-10T06:41:04;26.57;;;4.10;;
2772;SDS011;1394;47.044;15.744;2022-12-10T06:43:31;26.20;;;3.93;;
2772;SDS011;1394;47.044;15.744;2022-12-10T06:45:59;26.17;;;3.97;;
2772;SDS011;1394;47.044;15.744;2022-12-10T06:48:30;25.70;;;3.50;;
2772;SDS011;1394;47.044;15.744;2022-12-10T06:50:57;26.00;;;3.40;;
2772;SDS011;1394;47.044;15.744;2022-12-10T06:53:27;25.90;;;3.47;;
2772;SDS011;1394;47.044;15.744;2022-12-10T06:55:58;26.57;;;3.67;;
2772;SDS011;1394;47.044;15.744;2022-12-10T06:58:28;26.07;;;3.40;;
2772;SDS011;1394;47.044;15.744;2022-12-10T07:01:01;26.33;;;3.50;;
2772;SDS011;1394;47.044;15.744;2022-12-10T07:03:28;26.97;;;4.20;;
2772;SDS011;1394;47.044;15.744;2022-12-10T07:05:56;26.27;;;3.80;;
2772;SDS011;1394;47.044;15.744;2022-12-10T07:08:23;26.83;;;4.60;;
2772;SDS011;1394;47.044;15.744;2022-12-10T07:10:51;26.90;;;4.30;;
2772;SDS011;1394;47.044;15.744;2022-12-10T07:13:19;26.47;;;4.00;;
2772;SDS011;1394;47.044;15.744;2022-12-10T07:15:46;25.37;;;3.30;;
2772;SDS011;1394;47.044;15.744;2022-12-10T07:18:14;27.67;;;3.30;;
2772;SDS011;1394;47.044;15.744;2022-12-10T07:20:42;25.83;;;3.43;;
2772;SDS011;1394;47.044;15.744;2022-12-10T07:23:09;25.93;;;3.37;;
2772;SDS011;1394;47.044;15.744;2022-12-10T07:25:36;26.00;;;3.03;;
2772;SDS011;1394;47.044;15.744;2022-12-10T07:28:03;25.47;;;3.00;;
2772;SDS011;1394;47.044;15.744;2022-12-10T07:30:32;26.10;;;3.20;;
2772;SDS011;1394;47.044;15.744;2022-12-10T07:33:00;25.73;;;3.23;;
2772;SDS011;1394;47.044;15.744;2022-12-10T07:35:27;26.60;;;4.03;;
2772;SDS011;1394;47.044;15.744;2022-12-10T07:37:58;26.27;;;3.93;;
2772;SDS011;1394;47.044;15.744;2022-12-10T07:40:25;25.77;;;3.37;;
2772;SDS011;1394;47.044;15.744;2022-12-10T07:42:52;25.67;;;3.00;;
2772;SDS011;1394;47.044;15.744;2022-12-10T07:45:20;26.13;;;3.50;;
2772;SDS011;1394;47.044;15.744;2022-12-10T07:47:49;25.27;;;2.70;;
2772;SDS011;1394;47.044;15.744;2022-12-10T07:50:16;26.00;;;3.60;;
2772;SDS011;1394;47.044;15.744;2022-12-10T07:52:44;25.53;;;3.33;;
2772;SDS011;1394;47.044;15.744;2022-12-10T07:55:11;26.60;;;4.03;;
2772;SDS011;1394;47.044;15.744;2022-12-10T07:57:39;27.10;;;4.40;;
2772;SDS011;1394;47.044;15.744;2022-12-10T08:00:06;25.50;;;3.03;;
2772;SDS011;1394;47.044;15.744;2022-12-10T08:02:37;25.93;;;3.67;;
2772;SDS011;1394;47.044;15.744;2022-12-10T08:05:06;25.87;;;3.70;;
2772;SDS011;1394;47.044;15.744;2022-12-10T08:07:33;25.57;;;3.33;;
2772;SDS011;1394;47.044;15.744;2022-12-10T08:10:00;25.10;;;2.60;;
2772;SDS011;1394;47.044;15.744;2022-12-10T08:12:27;25.33;;;3.03;;
2772;SDS011;1394;47.044;15.744;2022-12-10T08:14:55;25.00;;;2.83;;
2772;SDS011;1394;47.044;15.744;2022-12-10T08:17:22;25.30;;;3.03;;
2772;SDS011;1394;47.044;15.744;2022-12-10T08:19:49;25.17;;;2.50;;
2772;SDS011;1394;47.044;15.744;2022-12-10T08:25:00;25.00;;;2.57;;
2772;SDS011;1394;47.044;15.744;2022-12-10T08:27:27;26.27;;;3.80;;
2772;SDS011;1394;47.044;15.744;2022-12-10T08:29:55;25.50;;;3.20;;
2772;SDS011;1394;47.044;15.744;2022-12-10T08:32:22;26.30;;;3.13;;
2772;SDS011;1394;47.044;15.744;2022-12-10T08:34:49;26.60;;;3.97;;
2772;SDS011;1394;47.044;15.744;2022-12-10T08:37:19;25.20;;;2.87;;
2772;SDS011;1394;47.044;15.744;2022-12-10T08:39:46;25.80;;;3.27;;
2772;SDS011;1394;47.044;15.744;2022-12-10T08:42:15;25.30;;;3.30;;
2772;SDS011;1394;47.044;15.744;2022-12-10T08:44:42;26.23;;;3.27;;
2772;SDS011;1394;47.044;15.744;2022-12-10T08:47:10;27.27;;;4.60;;
2772;SDS011;1394;47.044;15.744;2022-12-10T08:49:37;26.50;;;3.30;;
2772;SDS011;1394;47.044;15.744;2022-12-10T08:52:04;25.77;;;3.03;;
2772;SDS011;1394;47.044;15.744;2022-12-10T08:54:32;25.90;;;2.77;;
2772;SDS011;1394;47.044;15.744;2022-12-10T08:56:59;25.30;;;3.00;;
2772;SDS011;1394;47.044;15.744;2022-12-10T08:59:28;25.73;;;2.90;;
2772;SDS011;1394;47.044;15.744;2022-12-10T09:01:55;25.47;;;2.97;;
2772;SDS011;1394;47.044;15.744;2022-12-10T09:04:25;26.57;;;2.97;;
2772;SDS011;1394;47.044;15.744;2022-12-10T09:06:52;24.93;;;2.60;;
2772;SDS011;1394;47.044;15.744;2022-12-10T09:09:19;25.00;;;2.77;;
2772;SDS011;1394;47.044;15.744;2022-12-10T09:11:47;25.43;;;3.00;;
2772;SDS011;1394;47.044;15.744;2022-12-10T09:14:14;25.20;;;2.70;;
2772;SDS011;1394;47.044;15.744;2022-12-10T09:16:43;25.90;;;3.03;;
2772;SDS011;1394;47.044;15.744;2022-12-10T09:19:13;25.30;;;2.90;;
2772;SDS011;1394;47.044;15.744;2022-12-10T09:21:40;26.87;;;4.00;;
2772;SDS011;1394;47.044;15.744;2022-12-10T09:24:08;25.13;;;2.50;;
2772;SDS011;1394;47.044;15.744;2022-12-10T09:26:35;25.50;;;2.60;;
2772;SDS011;1394;47.044;15.744;2022-12-10T09:29:02;25.57;;;2.70;;
2772;SDS011;1394;47.044;15.744;2022-12-10T09:31:30;25.87;;;3.27;;
2772;SDS011;1394;47.044;15.744;2022-12-10T09:33:58;26.37;;;3.50;;
2772;SDS011;1394;47.044;15.744;2022-12-10T09:36:26;25.70;;;2.93;;
2772;SDS011;1394;47.044;15.744;2022-12-10T09:38:53;24.90;;;2.50;;
2772;SDS011;1394;47.044;15.744;2022-12-10T09:41:27;25.13;;;2.47;;
2772;SDS011;1394;47.044;15.744;2022-12-10T09:44:01;25.20;;;2.73;;
2772;SDS011;1394;47.044;15.744;2022-12-10T09:46:36;24.90;;;2.30;;
2772;SDS011;1394;47.044;15.744;2022-12-10T09:49:09;24.57;;;1.73;;
2772;SDS011;1394;47.044;15.744;2022-12-10T09:51:40;24.20;;;1.53;;
2772;SDS011;1394;47.044;15.744;2022-12-10T09:54:11;26.33;;;1.63;;
2772;SDS011;1394;47.044;15.744;2022-12-10T09:56:41;24.40;;;1.47;;
2772;SDS011;1394;47.044;15.744;2022-12-10T09:59:11;24.17;;;1.30;;
2772;SDS011;1394;47.044;15.744;2022-12-10T10:01:40;24.40;;;1.83;;
2772;SDS011;1394;47.044;15.744;2022-12-10T10:04:09;25.30;;;1.70;;
2772;SDS011;1394;47.044;15.744;2022-12-10T10:06:37;24.40;;;1.70;;
2772;SDS011;1394;47.044;15.744;2022-12-10T10:09:04;24.40;;;1.73;;
2772;SDS011;1394;47.044;15.744;2022-12-10T10:11:35;24.30;;;1.10;;
2772;SDS011;1394;47.044;15.744;2022-12-10T10:14:04;24.67;;;1.67;;
2772;SDS011;1394;47.044;15.744;2022-12-10T10:16:33;24.33;;;1.40;;
2772;SDS011;1394;47.044;15.744;2022-12-10T10:19:01;24.30;;;1.53;;
2772;SDS011;1394;47.044;15.744;2022-12-10T10:21:32;24.77;;;2.10;;
2772;SDS011;1394;47.044;15.744;2022-12-10T10:24:02;24.27;;;1.47;;
2772;SDS011;1394;47.044;15.744;2022-12-10T10:26:31;24.83;;;1.70;;
2772;SDS011;1394;47.044;15.744;2022-12-10T10:29:00;24.20;;;1.30;;
2772;SDS011;1394;47.044;15.744;2022-12-10T10:31:28;24.30;;;1.43;;
2772;SDS011;1394;47.044;15.744;2022-12-10T10:33:56;24.00;;;1.20;;
2772;SDS011;1394;47.044;15.744;2022-12-10T10:36:25;24.77;;;1.50;;
2772;SDS011;1394;47.044;15.744;2022-12-10T10:38:54;24.33;;;1.40;;
2772;SDS011;1394;47.044;15.744;2022-12-10T10:41:22;24.20;;;1.40;;
2772;SDS011;1394;47.044;15.744;2022-12-10T10:43:51;24.00;;;1.20;;
2772;SDS011;1394;47.044;15.744;2022-12-10T10:46:21;24.00;;;1.20;;
2772;SDS011;1394;47.044;15.744;2022-12-10T10:48:49;24.30;;;1.40;;
2772;SDS011;1394;47.044;15.744;2022-12-10T10:51:18;24.70;;;1.90;;
2772;SDS011;1394;47.044;15.744;2022-12-10T10:53:48;24.33;;;1.50;;
2772;SDS011;1394;47.044;15.744;2022-12-10T10:56:19;24.77;;;1.90;;
2772;SDS011;1394;47.044;15.744;2022-12-10T10:58:50;24.13;;;1.47;;
2772;SDS011;1394;47.044;15.744;2022-12-10T11:01:19;24.03;;;1.50;;
2772;SDS011;1394;47.044;15.744;2022-12-10T11:03:48;24.57;;;1.80;;
2772;SDS011;1394;47.044;15.744;2022-12-10T11:06:17;24.20;;;1.40;;
2772;SDS011;1394;47.044;15.744;2022-12-10T11:08:45;24.60;;;1.67;;
2772;SDS011;1394;47.044;15.744;2022-12-10T11:11:16;24.73;;;1.63;;
2772;SDS011;1394;47.044;15.744;2022-12-10T11:13:51;24.40;;;1.40;;
2772;SDS011;1394;47.044;15.744;2022-12-10T11:16:22;24.47;;;1.73;;
2772;SDS011;1394;47.044;15.744;2022-12-10T11:18:55;24.60;;;1.90;;
2772;SDS011;1394;47.044;15.744;2022-12-10T11:21:27;24.37;;;1.63;;
2772;SDS011;1394;47.044;15.744;2022-12-10T11:23:55;24.40;;;1.80;;
2772;SDS011;1394;47.044;15.744;2022-12-10T11:26:29;24.63;;;1.40;;
2772;SDS011;1394;47.044;15.744;2022-12-10T11:29:08;24.33;;;1.63;;
2772;SDS011;1394;47.044;15.744;2022-12-10T11:31:41;24.50;;;1.93;;
2772;SDS011;1394;47.044;15.744;2022-12-10T11:34:13;24.80;;;1.90;;
2772;SDS011;1394;47.044;15.744;2022-12-10T11:36:45;24.30;;;1.40;;
2772;SDS011;1394;47.044;15.744;2022-12-10T11:39:19;24.50;;;1.70;;
2772;SDS011;1394;47.044;15.744;2022-12-10T11:41:56;24.50;;;1.53;;
2772;SDS011;1394;47.044;15.744;2022-12-10T11:44:29;24.60;;;1.93;;
2772;SDS011;1394;47.044;15.744;2022-12-10T11:47:06;25.40;;;1.63;;
2772;SDS011;1394;47.044;15.744;2022-12-10T11:49:38;24.90;;;2.07;;
2772;SDS011;1394;47.044;15.744;2022-12-10T11:52:09;25.73;;;2.60;;
2772;SDS011;1394;47.044;15.744;2022-12-10T11:54:48;25.67;;;2.20;;
2772;SDS011;1394;47.044;15.744;2022-12-10T11:57:22;24.60;;;1.80;;
2772;SDS011;1394;47.044;15.744;2022-12-10T11:59:54;24.47;;;2.00;;
2772;SDS011;1394;47.044;15.744;2022-12-10T12:05:19;25.13;;;2.10;;
2772;SDS011;1394;47.044;15.744;2022-12-10T12:07:48;24.60;;;1.60;;
2772;SDS011;1394;47.044;15.744;2022-12-10T12:10:29;25.17;;;2.07;;
2772;SDS011;1394;47.044;15.744;2022-12-10T12:13:03;24.20;;;1.60;;
2772;SDS011;1394;47.044;15.744;2022-12-10T12:15:34;24.40;;;1.80;;
2772;SDS011;1394;47.044;15.744;2022-12-10T12:18:09;24.30;;;1.57;;
2772;SDS011;1394;47.044;15.744;2022-12-10T12:20:38;24.33;;;1.43;;
2772;SDS011;1394;47.044;15.744;2022-12-10T12:23:10;24.40;;;1.60;;
2772;SDS011;1394;47.044;15.744;2022-12-10T12:25:38;24.50;;;1.90;;
2772;SDS011;1394;47.044;15.744;2022-12-10T12:28:09;24.40;;;1.70;;
2772;SDS011;1394;47.044;15.744;2022-12-10T12:30:40;24.37;;;1.70;;
2772;SDS011;1394;47.044;15.744;2022-12-10T12:33:10;24.27;;;1.67;;
2772;SDS011;1394;47.044;15.744;2022-12-10T12:35:40;24.60;;;1.90;;
2772;SDS011;1394;47.044;15.744;2022-12-10T12:38:23;24.47;;;1.70;;
2772;SDS011;1394;47.044;15.744;2022-12-10T12:40:56;24.70;;;1.97;;
2772;SDS011;1394;47.044;15.744;2022-12-10T12:43:25;24.40;;;1.80;;
2772;SDS011;1394;47.044;15.744;2022-12-10T12:45:56;24.63;;;1.70;;
2772;SDS011;1394;47.044;15.744;2022-12-10T12:48:26;24.37;;;1.70;;
2772;SDS011;1394;47.044;15.744;2022-12-10T12:50:58;24.50;;;1.80;;
2772;SDS011;1394;47.044;15.744;2022-12-10T12:53:26;23.90;;;1.60;;
2772;SDS011;1394;47.044;15.744;2022-12-10T12:55:55;24.40;;;1.70;;
2772;SDS011;1394;47.044;15.744;2022-12-10T12:58:30;24.90;;;2.03;;
2772;SDS011;1394;47.044;15.744;2022-12-10T13:01:00;25.13;;;2.60;;
2772;SDS011;1394;47.044;15.744;2022-12-10T13:03:33;25.43;;;3.17;;
2772;SDS011;1394;47.044;15.744;2022-12-10T13:06:20;25.80;;;3.03;;
2772;SDS011;1394;47.044;15.744;2022-12-10T13:08:49;28.40;;;5.67;;
2772;SDS011;1394;47.044;15.744;2022-12-10T13:11:24;29.27;;;6.67;;
2772;SDS011;1394;47.044;15.744;2022-12-10T13:17:01;24.67;;;2.47;;
2772;SDS011;1394;47.044;15.744;2022-12-10T13:19:30;24.40;;;1.90;;
2772;SDS011;1394;47.044;15.744;2022-12-10T13:21:59;24.60;;;2.20;;
2772;SDS011;1394;47.044;15.744;2022-12-10T13:24:43;24.50;;;2.10;;
2772;SDS011;1394;47.044;15.744;2022-12-10T13:27:15;24.77;;;1.90;;
2772;SDS011;1394;47.044;15.744;2022-12-10T13:29:44;24.30;;;1.77;;
2772;SDS011;1394;47.044;15.744;2022-12-10T13:32:17;25.20;;;2.23;;
2772;SDS011;1394;47.044;15.744;2022-12-10T13:34:45;24.10;;;1.60;;
2772;SDS011;1394;47.044;15.744;2022-12-10T13:37:16;24.50;;;1.90;;
2772;SDS011;1394;47.044;15.744;2022-12-10T13:39:48;24.33;;;1.87;;
2772;SDS011;1394;47.044;15.744;2022-12-10T13:42:25;24.20;;;1.80;;
2772;SDS011;1394;47.044;15.744;2022-12-10T13:45:23;24.90;;;2.40;;
2772;SDS011;1394;47.044;15.744;2022-12-10T13:47:52;24.60;;;1.80;;
2772;SDS011;1394;47.044;15.744;2022-12-10T13:50:20;25.33;;;2.50;;
2772;SDS011;1394;47.044;15.744;2022-12-10T13:52:55;24.67;;;2.17;;
2772;SDS011;1394;47.044;15.744;2022-12-10T13:55:29;24.80;;;2.07;;
2772;SDS011;1394;47.044;15.744;2022-12-10T13:58:07;24.97;;;2.30;;
2772;SDS011;1394;47.044;15.744;2022-12-10T14:00:38;24.67;;;2.00;;
2772;SDS011;1394;47.044;15.744;2022-12-10T14:03:14;25.37;;;2.37;;
2772;SDS011;1394;47.044;15.744;2022-12-10T14:05:50;25.73;;;2.40;;
2772;SDS011;1394;47.044;15.744;2022-12-10T14:08:23;24.67;;;1.90;;
2772;SDS011;1394;47.044;15.744;2022-12-10T14:10:53;24.80;;;1.97;;
2772;SDS011;1394;47.044;15.744;2022-12-10T14:13:21;25.27;;;2.40;;
2772;SDS011;1394;47.044;15.744;2022-12-10T14:15:53;25.03;;;2.40;;
2772;SDS011;1394;47.044;15.744;2022-12-10T14:18:22;24.80;;;2.50;;
2772;SDS011;1394;47.044;15.744;2022-12-10T14:20:50;25.33;;;2.63;;
2772;SDS011;1394;47.044;15.744;2022-12-10T14:23:23;26.07;;;3.40;;
2772;SDS011;1394;47.044;15.744;2022-12-10T14:26:03;25.03;;;2.70;;
2772;SDS011;1394;47.044;15.744;2022-12-10T14:28:31;24.70;;;2.20;;
2772;SDS011;1394;47.044;15.744;2022-12-10T14:31:00;24.80;;;2.30;;
2772;SDS011;1394;47.044;15.744;2022-12-10T14:33:28;25.83;;;3.40;;
2772;SDS011;1394;47.044;15.744;2022-12-10T14:35:56;25.20;;;2.80;;
2772;SDS011;1394;47.044;15.744;2022-12-10T14:38:25;24.87;;;2.43;;
2772;SDS011;1394;47.044;15.744;2022-12-10T14:40:54;24.73;;;2.40;;
2772;SDS011;1394;47.044;15.744;2022-12-10T14:43:23;25.40;;;2.63;;
2772;SDS011;1394;47.044;15.744;2022-12-10T14:45:52;25.00;;;2.70;;
2772;SDS011;1394;47.044;15.744;2022-12-10T14:48:21;26.10;;;3.70;;
2772;SDS011;1394;47.044;15.744;2022-12-10T14:50:50;25.00;;;2.80;;
2772;SDS011;1394;47.044;15.744;2022-12-10T14:53:18;24.90;;;2.50;;
2772;SDS011;1394;47.044;15.744;2022-12-10T14:55:46;25.50;;;3.23;;
2772;SDS011;1394;47.044;15.744;2022-12-10T14:58:16;26.40;;;4.23;;
2772;SDS011;1394;47.044;15.744;2022-12-10T15:00:45;25.93;;;3.50;;
2772;SDS011;1394;47.044;15.744;2022-12-10T15:03:16;24.80;;;2.50;;
2772;SDS011;1394;47.044;15.744;2022-12-10T15:05:54;26.70;;;3.33;;
2772;SDS011;1394;47.044;15.744;2022-12-10T15:08:22;25.97;;;4.30;;
2772;SDS011;1394;47.044;15.744;2022-12-10T15:10:51;24.57;;;2.73;;